Alberta, Virginia
Current Conditions -  °F | °C
As of 1:35 PM on Thursday 30 Oct 2014 (Local Time) from KLVL Reporting Station
Broken Clouds Broken Clouds  
Wind Chill: 61°   Ceiling: 4600
Heat Index: 61°   Visibility: 10mi
Dew Point: 43°   Wind: 3mph
Humidity: 51%   Direction: 40°NE
Pressure: 30.01"   Gusts: NA
Location:  36.87°N, 77.89°W
Report Text: KLVL 301735Z AUTO 04003KT 10SM SCT040 BKN046 16/06 A3001 RMK AO1 T01620059
Loading
Personal Weather Stations






























Interactive Weather Map New forecast layout! Learn more

10-Day Weather Forecast

Advertisements
Track Severe Weather on mobile